»·PEaware :: AAL405 KBFL-KPHX

AAL405 :: KBFL-KPHX

FLIGHT INFORMATION

Flight Status: Arrived
Operator:
American Airlines
More flights by this operator :: More flights under this callsign
Pilot: Anonymous 39875 (39875)
Aircraft: EMBRAER EMB-170/175
(E170)
More flights by this aircraft type
Origin: KBFL Meadows
United States
Destination: KPHX Phoenix Sky Harbor Intl
United States
More flights between these airports :: More routes between these airports
Route: MEADO5 EHF V197 PMD J6 HEC PRFUM WOTRO BRUSR1
File this flight plan on PilotEdge
Remarks: RMK / SIMBRIEF
Altitude:
(Current/Filed)
37,000ft
Speed:
(Current/Filed)
450kts
Departed: 30-Jul-22 09:25 AM
Arrived: 30-Jul-22 10:41 AM
Distance/Time
Traveled:
369nm/1:16
Distance/Time
To Go:
Arrived

Flight Plot

Page will automatically refresh every two minutes.

Flight plan parsing failed; only flown route is shown


Map Options




Map Legend


Flown Route
Filed Route
Departure Airport
Arrival Airport
Navaid (VOR, NDB)
Fix

Horizontal Profiles

Position Reports

Time Latitude Longitude Heading Altitude Ground
Speed
30-Jul-22 08:47 35.436905 -119.054872 44 517ft 0kts
30-Jul-22 08:48 35.436905 -119.054872 44 517ft 0kts
30-Jul-22 08:49 35.436905 -119.054872 44 517ft 0kts
30-Jul-22 08:50 35.436905 -119.054872 44 517ft 0kts
30-Jul-22 08:51 35.436905 -119.054872 44 517ft 0kts
30-Jul-22 08:52 35.436905 -119.054872 44 517ft 0kts
30-Jul-22 08:53 35.436905 -119.054872 44 517ft 0kts
30-Jul-22 08:54 35.436905 -119.054872 44 517ft 0kts
30-Jul-22 08:55 35.436905 -119.054872 44 517ft 0kts
30-Jul-22 08:56 35.436905 -119.054872 44 517ft 0kts
30-Jul-22 08:57 35.436905 -119.054872 44 517ft 0kts
30-Jul-22 08:58 35.436905 -119.054872 44 517ft 0kts
30-Jul-22 08:59 35.436905 -119.054872 44 517ft 0kts
30-Jul-22 09:00 35.436905 -119.054872 44 517ft 0kts
30-Jul-22 09:01 35.436905 -119.054872 44 517ft 0kts
30-Jul-22 09:02 35.436905 -119.054872 44 517ft 0kts
30-Jul-22 09:03 35.436905 -119.054872 44 517ft 0kts
30-Jul-22 09:04 35.436905 -119.054872 44 517ft 0kts
30-Jul-22 09:05 35.436905 -119.054872 44 517ft 0kts
30-Jul-22 09:06 35.436905 -119.054872 44 517ft 0kts
30-Jul-22 09:07 35.436905 -119.054872 44 517ft 0kts
30-Jul-22 09:08 35.436905 -119.054872 44 517ft 0kts
30-Jul-22 09:09 35.436905 -119.054872 44 517ft 0kts
30-Jul-22 09:10 35.436905 -119.054872 44 517ft 0kts
30-Jul-22 09:11 35.436905 -119.054872 44 517ft 0kts
30-Jul-22 09:12 35.436905 -119.054872 44 517ft 0kts
30-Jul-22 09:13 35.436905 -119.054872 44 517ft 0kts
30-Jul-22 09:14 35.436905 -119.054872 44 517ft 0kts
30-Jul-22 09:15 35.436905 -119.054872 44 517ft 0kts
30-Jul-22 09:16 35.436905 -119.054872 44 517ft 0kts
30-Jul-22 09:17 35.436758 -119.055077 60 517ft 2kts
30-Jul-22 09:18 35.436828 -119.055548 135 517ft 0kts
30-Jul-22 09:19 35.436827 -119.055547 135 517ft 0kts
30-Jul-22 09:20 35.435337 -119.055491 166 517ft 14kts
30-Jul-22 09:21 35.431260 -119.050819 135 517ft 21kts
30-Jul-22 09:22 35.427313 -119.046061 134 517ft 23kts
30-Jul-22 09:23 35.426320 -119.047100 315 517ft 21kts
30-Jul-22 09:24 35.463911 -119.094627 313 2666ft 248kts
30-Jul-22 09:25 35.502503 -119.163587 270 5650ft 258kts
30-Jul-22 09:26 35.451599 -119.212071 168 8667ft 272kts
30-Jul-22 09:27 35.386625 -119.162797 142 11695ft 280kts
30-Jul-22 09:28 35.315162 -119.098532 142 13008ft 341kts
30-Jul-22 09:29 35.237492 -119.028873 142 13027ft 350kts
30-Jul-22 09:30 35.160654 -118.957630 130 15253ft 349kts
30-Jul-22 09:31 35.103644 -118.859043 123 18285ft 360kts
30-Jul-22 09:32 35.044127 -118.757662 124 21288ft 375kts
30-Jul-22 09:33 34.981711 -118.651791 125 24300ft 392kts
30-Jul-22 09:34 34.916434 -118.541394 125 27308ft 410kts
30-Jul-22 09:35 34.849194 -118.428076 125 30267ft 429kts
30-Jul-22 09:36 34.776669 -118.306252 126 33312ft 449kts
30-Jul-22 09:37 34.744080 -118.251647 126 34637ft 456kts
30-Jul-22 09:39 34.652516 -117.874498 83 37056ft 469kts
30-Jul-22 09:40 34.668964 -117.719497 83 37089ft 459kts
30-Jul-22 09:41 34.685199 -117.566340 83 37125ft 456kts
30-Jul-22 09:42 34.701280 -117.413706 83 37144ft 455kts
30-Jul-22 09:43 34.717164 -117.261137 83 37141ft 455kts
30-Jul-22 09:44 34.732847 -117.108542 84 37152ft 455kts
30-Jul-22 09:45 34.748342 -116.955894 84 37123ft 455kts
30-Jul-22 09:46 34.763606 -116.803575 84 37085ft 454kts
30-Jul-22 09:47 34.778719 -116.650798 84 37085ft 454kts
30-Jul-22 09:48 34.793593 -116.498483 84 37113ft 453kts
30-Jul-22 09:49 34.829644 -116.352155 71 37139ft 455kts
30-Jul-22 09:50 34.872182 -116.206660 71 37110ft 455kts
30-Jul-22 09:51 34.914419 -116.061431 71 37116ft 455kts
30-Jul-22 09:52 34.956583 -115.915879 71 37114ft 455kts
30-Jul-22 09:53 34.998686 -115.769781 71 36563ft 458kts
30-Jul-22 09:54 35.039848 -115.626224 71 37109ft 456kts
30-Jul-22 09:55 35.079258 -115.488079 71 37068ft 454kts
30-Jul-22 09:56 35.122888 -115.334334 72 37056ft 454kts
30-Jul-22 09:57 35.164044 -115.188510 72 37064ft 454kts
30-Jul-22 09:58 35.205058 -115.042429 72 37062ft 455kts
30-Jul-22 09:59 35.245933 -114.896052 72 37059ft 455kts
30-Jul-22 10:00 35.286650 -114.749473 72 37033ft 456kts
30-Jul-22 10:01 35.327316 -114.602282 72 37027ft 456kts
30-Jul-22 10:02 35.368237 -114.453342 72 36277ft 462kts
30-Jul-22 10:03 35.408955 -114.304360 72 35276ft 461kts
30-Jul-22 10:04 35.449493 -114.155191 72 34326ft 461kts
30-Jul-22 10:05 35.486733 -114.005313 83 33414ft 458kts
30-Jul-22 10:06 35.460363 -113.855979 121 32523ft 457kts
30-Jul-22 10:07 35.389414 -113.725527 123 31666ft 461kts
30-Jul-22 10:08 35.318045 -113.593892 123 30783ft 465kts
30-Jul-22 10:09 35.246027 -113.461773 123 29786ft 468kts
30-Jul-22 10:10 35.173424 -113.329086 123 28821ft 470kts
30-Jul-22 10:11 35.100767 -113.195951 123 28021ft 472kts
30-Jul-22 10:13 35.027670 -113.062407 124 27227ft 474kts
30-Jul-22 10:14 34.953645 -112.927710 124 26667ft 479kts
30-Jul-22 10:15 34.878804 -112.793499 124 26167ft 478kts
30-Jul-22 10:16 34.804680 -112.661410 124 25448ft 472kts
30-Jul-22 10:17 34.730267 -112.529205 124 24660ft 457kts
30-Jul-22 10:18 34.649083 -112.427938 141 23711ft 403kts
30-Jul-22 10:19 34.563593 -112.344258 141 22434ft 385kts
30-Jul-22 10:20 34.481925 -112.264627 141 21022ft 370kts
30-Jul-22 10:21 34.391532 -112.215840 167 19619ft 351kts
30-Jul-22 10:22 34.298408 -112.191861 167 18222ft 332kts
30-Jul-22 10:23 34.209565 -112.168858 167 16821ft 321kts
30-Jul-22 10:24 34.123248 -112.146584 167 15418ft 312kts
30-Jul-22 10:25 34.039719 -112.125204 168 14088ft 303kts
30-Jul-22 10:26 33.960118 -112.095402 156 12886ft 296kts
30-Jul-22 10:27 33.886716 -112.053329 155 11677ft 289kts
30-Jul-22 10:28 33.811884 -112.019236 163 10313ft 289kts
30-Jul-22 10:29 33.735812 -111.992593 163 8898ft 276kts
30-Jul-22 10:30 33.663732 -111.967801 164 8207ft 267kts
30-Jul-22 10:31 33.593998 -111.941397 161 6701ft 256kts
30-Jul-22 10:32 33.530518 -111.911512 145 4887ft 238kts
30-Jul-22 10:33 33.523315 -111.840204 73 3999ft 231kts
30-Jul-22 10:34 33.522743 -111.765362 122 3971ft 228kts
30-Jul-22 10:34 33.476489 -111.746283 178 4005ft 195kts
30-Jul-22 10:36 33.436507 -111.780558 280 4011ft 173kts
30-Jul-22 10:37 33.442807 -111.833133 267 3923ft 153kts
30-Jul-22 10:38 33.440558 -111.883095 266 2922ft 146kts
30-Jul-22 10:38 33.440546 -111.922745 270 2292ft 141kts
30-Jul-22 10:40 33.440716 -111.976976 272 1441ft 138kts
30-Jul-22 10:41 33.440642 -112.004595 191 1145ft 5kts
30-Jul-22 10:42 33.439011 -112.003804 158 1145ft 1kts
30-Jul-22 10:42 33.438984 -112.000655 90 1145ft 13kts
30-Jul-22 10:43 33.438291 -111.997893 188 1145ft 8kts
30-Jul-22 10:44 33.437640 -111.997267 89 1145ft 0kts
30-Jul-22 10:46 33.437640 -111.997267 89 1145ft 0kts

Navigation Log

Ident Type
Flight plan parsing failed, navigation log unavailable